Time;durP1;ratioP1;P1;durP2;ratioP2;P2;SDS_P1;SDS_P2;PMS_P1;PMS_P2;Temp;Humidity;BMP_temperature;BMP_pressure;BME280_temperature;BME280_humidity;BME280_pressure;Samples;Min_cycle;Max_cycle;Signal;HPM_P1;HPM_P2
2022/03/27 00:00:37;;;;;;;34.50;12.80;;;6.20;99.90;;;;;;4944439;28;20216;-78
2022/03/27 00:03:05;;;;;;;33.20;11.67;;;6.10;99.90;;;;;;4960408;28;20173;-78
2022/03/27 00:05:31;;;;;;;34.80;11.70;;;6.10;99.90;;;;;;4944109;28;20595;-78
2022/03/27 00:07:57;;;;;;;30.47;11.00;;;6.20;99.90;;;;;;4944480;28;20628;-78
2022/03/27 00:10:23;;;;;;;28.57;10.90;;;6.10;99.90;;;;;;4944647;28;20199;-78
2022/03/27 00:12:48;;;;;;;30.13;10.40;;;6.20;99.90;;;;;;4944841;28;20180;-78
2022/03/27 00:15:14;;;;;;;32.20;12.83;;;6.30;99.90;;;;;;4947417;28;20211;-78
2022/03/27 00:17:40;;;;;;;40.13;13.43;;;6.30;99.90;;;;;;4944713;28;20204;-77
2022/03/27 00:20:08;;;;;;;37.70;13.23;;;6.10;99.90;;;;;;4945087;28;20576;-78
2022/03/27 00:22:36;;;;;;;31.80;10.20;;;6.00;99.90;;;;;;4960891;28;20589;-78
2022/03/27 00:25:04;;;;;;;28.47;9.53;;;6.00;99.90;;;;;;4944816;28;20659;-77
2022/03/27 00:27:31;;;;;;;28.23;9.00;;;6.10;99.90;;;;;;4945013;28;20211;-78
2022/03/27 00:29:57;;;;;;;23.43;8.60;;;6.10;99.90;;;;;;4944809;28;20188;-79
2022/03/27 00:32:23;;;;;;;20.13;8.90;;;6.00;99.90;;;;;;4945546;28;20177;-78
2022/03/27 00:34:49;;;;;;;29.30;9.27;;;5.90;99.90;;;;;;4952126;28;20165;-78
2022/03/27 00:37:16;;;;;;;22.83;9.10;;;5.90;99.90;;;;;;4962488;28;20640;-78
2022/03/27 00:39:42;;;;;;;27.43;10.33;;;5.80;99.90;;;;;;4962784;28;20171;-78
2022/03/27 00:42:08;;;;;;;27.43;10.67;;;5.80;99.90;;;;;;4963096;28;20279;-78
2022/03/27 00:44:34;;;;;;;27.17;9.37;;;5.70;99.90;;;;;;4963370;28;20183;-78
2022/03/27 00:47:00;;;;;;;26.33;9.37;;;5.70;99.90;;;;;;4962479;28;20279;-78
2022/03/27 00:49:26;;;;;;;20.53;9.20;;;5.70;99.90;;;;;;4963629;28;20192;-78
2022/03/27 00:51:52;;;;;;;25.00;10.50;;;5.60;99.90;;;;;;4963684;28;20172;-78
2022/03/27 00:54:18;;;;;;;27.47;10.70;;;5.50;99.90;;;;;;4963080;28;20170;-78
2022/03/27 00:56:43;;;;;;;19.83;10.07;;;5.60;99.90;;;;;;4963617;28;20275;-77
2022/03/27 00:59:09;;;;;;;22.33;10.47;;;5.60;99.90;;;;;;4963009;28;20180;-78
2022/03/27 01:01:39;;;;;;;20.33;9.00;;;5.60;99.90;;;;;;4979165;28;20250;-78
2022/03/27 01:04:06;;;;;;;26.83;11.53;;;5.70;99.90;;;;;;4963504;28;20207;-78
2022/03/27 01:06:35;;;;;;;23.30;10.67;;;5.70;99.90;;;;;;4977189;28;20216;-79
2022/03/27 01:11:49;;;;;;;21.10;10.30;;;5.40;99.90;;;;;;4978337;28;20219;-77
2022/03/27 01:14:22;;;;;;;24.30;11.33;;;5.40;99.90;;;;;;4961868;28;20184;-77
2022/03/27 01:16:58;;;;;;;28.00;12.80;;;5.40;99.90;;;;;;4959985;28;20200;-78
2022/03/27 01:19:25;;;;;;;23.67;13.43;;;5.30;99.90;;;;;;4954377;28;20183;-78
2022/03/27 01:21:51;;;;;;;25.37;12.17;;;5.30;99.90;;;;;;4942082;28;20215;-77
2022/03/27 01:24:17;;;;;;;25.10;12.90;;;5.40;99.90;;;;;;4943064;28;20176;-77
2022/03/27 01:26:44;;;;;;;26.57;12.13;;;5.30;99.90;;;;;;4942260;28;20207;-78
2022/03/27 01:29:10;;;;;;;24.33;13.37;;;5.20;99.90;;;;;;4942060;28;20180;-78
2022/03/27 01:31:36;;;;;;;23.50;12.70;;;5.10;99.90;;;;;;4942027;28;20183;-78
2022/03/27 01:34:03;;;;;;;28.23;13.47;;;5.20;99.90;;;;;;4942468;28;20172;-77
2022/03/27 01:36:34;;;;;;;32.40;14.70;;;5.10;99.90;;;;;;4958209;28;20203;-78
2022/03/27 01:39:02;;;;;;;26.57;13.53;;;5.20;99.90;;;;;;4959617;28;20600;-78
2022/03/27 01:41:28;;;;;;;33.07;16.87;;;5.20;99.90;;;;;;4942518;28;20227;-79
2022/03/27 01:43:54;;;;;;;32.23;15.53;;;5.10;99.90;;;;;;4941904;28;20228;-78
2022/03/27 01:46:20;;;;;;;30.40;14.67;;;5.10;99.90;;;;;;4941586;28;20235;-77
2022/03/27 01:48:46;;;;;;;34.07;15.47;;;5.20;99.90;;;;;;4941434;28;20183;-77
2022/03/27 01:51:12;;;;;;;32.70;15.10;;;5.20;99.90;;;;;;4941990;28;20187;-78
2022/03/27 01:53:39;;;;;;;34.43;15.70;;;5.10;99.90;;;;;;4945807;28;20180;-79
2022/03/27 01:56:07;;;;;;;35.43;15.53;;;5.10;99.90;;;;;;4960164;28;20204;-78
2022/03/27 01:58:37;;;;;;;37.20;16.87;;;5.20;99.90;;;;;;4941902;28;20179;-78
2022/03/27 02:01:02;;;;;;;37.77;18.80;;;5.20;99.90;;;;;;4945178;28;20215;-78
2022/03/27 02:03:28;;;;;;;52.37;23.80;;;5.10;99.90;;;;;;4960970;28;20184;-78
2022/03/27 02:05:55;;;;;;;54.00;28.43;;;5.10;99.90;;;;;;4940995;28;20223;-78
2022/03/27 02:08:22;;;;;;;46.43;22.97;;;5.10;99.90;;;;;;4957332;28;20172;-78
2022/03/27 02:10:48;;;;;;;39.17;20.00;;;5.30;99.90;;;;;;4941324;28;20180;-78
2022/03/27 02:13:15;;;;;;;41.93;17.83;;;5.30;99.90;;;;;;4957035;28;20210;-78
2022/03/27 02:15:41;;;;;;;38.97;18.90;;;5.40;99.90;;;;;;4941241;28;20650;-78
2022/03/27 02:18:09;;;;;;;35.83;18.30;;;5.40;99.90;;;;;;4940946;28;20188;-78
2022/03/27 02:20:35;;;;;;;37.57;16.27;;;5.20;99.90;;;;;;4941894;28;20187;-78
2022/03/27 02:23:01;;;;;;;39.13;18.67;;;5.20;99.90;;;;;;4941191;28;20543;-78
2022/03/27 02:25:26;;;;;;;37.57;17.10;;;5.10;99.90;;;;;;4940427;28;20219;-78
2022/03/27 02:27:52;;;;;;;39.00;17.73;;;5.10;99.90;;;;;;4940361;28;20540;-78
2022/03/27 02:30:19;;;;;;;36.13;17.90;;;5.10;99.90;;;;;;4940890;28;20190;-78
2022/03/27 02:32:46;;;;;;;45.17;18.33;;;5.10;99.90;;;;;;4941298;28;20227;-79
2022/03/27 02:35:12;;;;;;;38.57;18.23;;;5.20;99.90;;;;;;4941749;28;20544;-79
2022/03/27 02:37:38;;;;;;;46.73;20.03;;;5.40;99.90;;;;;;4941104;28;20184;-79
2022/03/27 02:40:05;;;;;;;37.67;18.03;;;5.40;99.90;;;;;;4941432;28;20198;-79
2022/03/27 02:42:31;;;;;;;36.13;18.83;;;5.50;99.90;;;;;;4941581;28;20179;-79
2022/03/27 02:44:56;;;;;;;52.80;24.80;;;5.40;99.90;;;;;;4941548;28;20256;-79
2022/03/27 02:47:22;;;;;;;51.00;26.33;;;5.30;99.90;;;;;;4941239;28;20212;-79
2022/03/27 02:49:48;;;;;;;49.30;24.30;;;5.30;99.90;;;;;;4941785;28;20203;-79
2022/03/27 02:52:14;;;;;;;43.27;21.40;;;5.40;99.90;;;;;;4944239;28;20178;-79
2022/03/27 02:54:40;;;;;;;42.77;21.53;;;5.40;99.90;;;;;;4944884;28;20177;-79
2022/03/27 02:57:05;;;;;;;38.87;18.27;;;5.50;99.90;;;;;;4946362;28;20255;-79
2022/03/27 02:59:31;;;;;;;35.20;15.77;;;5.60;99.90;;;;;;4958756;28;20222;-78
2022/03/27 03:01:57;;;;;;;37.67;16.23;;;5.50;99.90;;;;;;4940729;28;20205;-78
2022/03/27 03:04:23;;;;;;;34.63;16.27;;;5.40;99.90;;;;;;4944551;28;20212;-77
2022/03/27 03:06:49;;;;;;;39.50;18.80;;;5.40;99.90;;;;;;4943874;28;20215;-78
2022/03/27 03:09:15;;;;;;;31.20;16.43;;;5.40;99.90;;;;;;4944119;28;20190;-78
2022/03/27 03:11:41;;;;;;;36.33;17.50;;;5.40;99.90;;;;;;4943783;28;20631;-78
2022/03/27 03:14:07;;;;;;;38.10;16.83;;;5.40;99.90;;;;;;4943754;28;20183;-78
2022/03/27 03:16:34;;;;;;;42.03;17.40;;;5.30;99.90;;;;;;4943389;28;20200;-78
2022/03/27 03:19:00;;;;;;;34.47;16.00;;;5.20;99.90;;;;;;4943209;28;20306;-78
2022/03/27 03:21:26;;;;;;;34.53;16.43;;;5.00;99.90;;;;;;4943433;28;20270;-78
2022/03/27 03:23:52;;;;;;;38.97;16.00;;;4.90;99.90;;;;;;4943567;28;20271;-78
2022/03/27 03:26:18;;;;;;;37.13;16.80;;;4.90;99.90;;;;;;4943774;28;20653;-77
2022/03/27 03:28:43;;;;;;;40.90;16.97;;;4.90;99.90;;;;;;4943867;28;20191;-78
2022/03/27 03:31:09;;;;;;;39.13;16.53;;;4.80;99.90;;;;;;4943896;28;20286;-78
2022/03/27 03:33:34;;;;;;;27.70;14.77;;;4.90;99.90;;;;;;4943816;28;20188;-78
2022/03/27 03:36:00;;;;;;;30.77;14.23;;;5.00;99.90;;;;;;4944051;28;20293;-78
2022/03/27 03:38:26;;;;;;;39.87;16.27;;;5.00;99.90;;;;;;4942735;28;20176;-78
2022/03/27 03:40:52;;;;;;;103.20;16.70;;;4.90;99.90;;;;;;4943873;28;20184;-78
2022/03/27 03:43:20;;;;;;;43.90;15.77;;;4.80;99.90;;;;;;4943896;28;20207;-78
2022/03/27 03:45:46;;;;;;;47.73;16.37;;;4.80;99.90;;;;;;4944112;28;20212;-79
2022/03/27 03:48:12;;;;;;;87.23;18.37;;;4.80;99.90;;;;;;4944218;28;20180;-77
2022/03/27 03:50:38;;;;;;;259.80;22.17;;;4.70;99.90;;;;;;4961610;28;20180;-77
2022/03/27 03:53:04;;;;;;;91.10;18.50;;;4.60;99.90;;;;;;4947027;28;20182;-78
2022/03/27 03:55:31;;;;;;;79.70;19.63;;;4.30;99.90;;;;;;4960407;28;20207;-78
2022/03/27 03:57:56;;;;;;;74.20;20.47;;;4.20;99.90;;;;;;4943472;28;20230;-78
2022/03/27 04:00:23;;;;;;;79.93;18.20;;;4.10;99.90;;;;;;4943940;28;20535;-78
2022/03/27 04:02:49;;;;;;;109.57;20.40;;;4.10;99.90;;;;;;4944466;28;20579;-77
2022/03/27 04:05:15;;;;;;;57.80;19.03;;;4.10;99.90;;;;;;4951143;28;20256;-79
2022/03/27 04:07:40;;;;;;;39.60;18.40;;;4.00;99.90;;;;;;4964925;28;20234;-79
2022/03/27 04:10:06;;;;;;;31.73;20.17;;;4.00;99.90;;;;;;4966369;28;20172;-78
2022/03/27 04:12:32;;;;;;;40.03;20.83;;;4.10;99.90;;;;;;4965359;28;20180;-78
2022/03/27 04:14:58;;;;;;;75.43;25.60;;;4.20;99.90;;;;;;4963760;28;20175;-78
2022/03/27 04:17:24;;;;;;;71.50;23.40;;;4.20;99.90;;;;;;4964549;28;20172;-78
2022/03/27 04:19:49;;;;;;;74.33;21.00;;;4.10;99.90;;;;;;4964534;28;20176;-78
2022/03/27 04:22:15;;;;;;;35.13;18.60;;;4.10;99.90;;;;;;4964911;28;20215;-78
2022/03/27 04:24:41;;;;;;;37.03;16.03;;;4.00;99.90;;;;;;4964385;28;20187;-78
2022/03/27 04:27:07;;;;;;;34.63;16.13;;;4.00;99.90;;;;;;4964983;28;20338;-78
2022/03/27 04:29:32;;;;;;;43.97;15.70;;;3.90;99.90;;;;;;4964551;28;20211;-78
2022/03/27 04:31:58;;;;;;;28.63;16.10;;;3.90;99.90;;;;;;4964092;28;20178;-79
2022/03/27 04:34:24;;;;;;;44.07;16.97;;;3.90;99.90;;;;;;4964271;28;20176;-79
2022/03/27 04:36:49;;;;;;;26.93;13.50;;;3.80;99.90;;;;;;4964876;28;20211;-78
2022/03/27 04:39:15;;;;;;;43.20;13.10;;;3.80;99.90;;;;;;4963650;28;20184;-77
2022/03/27 04:41:41;;;;;;;25.50;12.87;;;3.80;99.90;;;;;;4965009;28;20172;-78
2022/03/27 04:44:08;;;;;;;29.00;14.30;;;3.80;99.90;;;;;;4964766;28;20183;-78
2022/03/27 04:46:34;;;;;;;31.00;15.37;;;3.80;99.90;;;;;;4964298;28;20219;-78
2022/03/27 04:48:59;;;;;;;23.43;14.03;;;3.90;99.90;;;;;;4961514;28;20186;-78
2022/03/27 04:51:25;;;;;;;40.83;14.50;;;3.90;99.90;;;;;;4964560;28;20187;-77
2022/03/27 04:53:51;;;;;;;23.90;14.20;;;4.00;99.90;;;;;;4964604;28;20194;-78
2022/03/27 04:56:17;;;;;;;29.03;14.87;;;4.00;99.90;;;;;;4964704;28;20188;-78
2022/03/27 04:58:43;;;;;;;23.30;12.07;;;4.00;99.90;;;;;;4964389;28;20215;-78
2022/03/27 05:01:10;;;;;;;30.43;11.67;;;4.00;99.90;;;;;;4964011;28;20168;-78
2022/03/27 05:03:36;;;;;;;24.73;11.10;;;4.00;99.90;;;;;;4964305;28;20195;-78
2022/03/27 05:06:01;;;;;;;40.87;12.73;;;4.00;99.90;;;;;;4964238;28;20231;-79
2022/03/27 05:08:27;;;;;;;31.83;12.50;;;3.90;99.90;;;;;;4964235;28;20192;-78
2022/03/27 05:10:53;;;;;;;30.70;12.30;;;3.80;99.90;;;;;;4964718;28;20220;-78
2022/03/27 05:13:18;;;;;;;33.67;13.60;;;3.80;99.90;;;;;;4963871;28;20195;-79
2022/03/27 05:15:45;;;;;;;30.07;14.17;;;3.80;99.90;;;;;;4963365;28;20220;-78
2022/03/27 05:18:11;;;;;;;27.97;13.50;;;3.80;99.90;;;;;;4963751;28;20211;-79
2022/03/27 05:20:42;;;;;;;44.43;14.90;;;3.80;99.90;;;;;;4964347;28;20179;-78
2022/03/27 05:23:08;;;;;;;39.03;16.50;;;3.80;99.90;;;;;;4963016;28;20195;-78
2022/03/27 05:25:40;;;;;;;28.03;14.73;;;3.80;99.90;;;;;;4963245;28;20200;-78
2022/03/27 05:28:08;;;;;;;45.67;15.20;;;3.80;99.90;;;;;;4978982;28;20176;-78
2022/03/27 05:30:33;;;;;;;50.23;15.67;;;3.70;99.90;;;;;;4962089;28;20179;-78
2022/03/27 05:32:59;;;;;;;72.97;13.80;;;3.60;99.90;;;;;;4961105;28;20194;-78
2022/03/27 05:35:25;;;;;;;23.63;13.40;;;3.60;99.90;;;;;;4960884;28;20223;-78
2022/03/27 05:37:52;;;;;;;29.97;13.20;;;3.60;99.90;;;;;;4960399;28;20180;-78
2022/03/27 05:40:22;;;;;;;44.60;12.17;;;3.60;99.90;;;;;;4977273;28;20191;-78
2022/03/27 05:42:49;;;;;;;50.43;13.13;;;3.60;99.90;;;;;;4962416;28;20215;-78
2022/03/27 05:45:14;;;;;;;35.50;12.70;;;3.40;99.90;;;;;;4977283;28;20212;-78
2022/03/27 05:47:43;;;;;;;102.00;14.73;;;3.30;99.90;;;;;;4962817;28;20223;-78
2022/03/27 05:50:11;;;;;;;47.23;12.70;;;3.40;99.90;;;;;;4962982;28;20180;-78
2022/03/27 05:52:37;;;;;;;50.07;11.97;;;3.30;99.90;;;;;;4962043;28;20188;-78
2022/03/27 05:55:04;;;;;;;52.57;11.83;;;3.40;99.90;;;;;;4961917;28;20184;-78
2022/03/27 05:57:30;;;;;;;33.50;11.13;;;3.40;99.90;;;;;;4971600;28;20190;-78
2022/03/27 05:59:56;;;;;;;30.20;11.30;;;3.40;99.90;;;;;;4948394;28;20172;-78
2022/03/27 06:02:21;;;;;;;34.87;11.93;;;3.40;99.90;;;;;;4953708;28;20243;-78
2022/03/27 06:04:47;;;;;;;24.30;10.93;;;3.40;99.90;;;;;;4962150;28;20191;-78
2022/03/27 06:07:13;;;;;;;26.93;11.67;;;3.30;99.90;;;;;;4961413;28;20219;-78
2022/03/27 06:09:39;;;;;;;31.23;11.07;;;3.40;99.90;;;;;;4960935;28;20222;-78
2022/03/27 06:12:06;;;;;;;31.33;10.70;;;3.50;99.90;;;;;;4958635;28;20180;-78
2022/03/27 06:14:32;;;;;;;31.53;10.10;;;3.50;99.90;;;;;;4955742;28;20180;-78
2022/03/27 06:16:58;;;;;;;26.97;10.37;;;3.40;99.90;;;;;;4948343;29;20213;-77
2022/03/27 06:19:24;;;;;;;28.67;10.47;;;3.50;99.90;;;;;;4971024;28;20184;-78
2022/03/27 06:21:50;;;;;;;146.37;13.43;;;3.60;99.90;;;;;;4961425;28;20168;-78
2022/03/27 06:24:16;;;;;;;56.87;10.47;;;3.50;99.90;;;;;;4959023;28;20195;-77
2022/03/27 06:26:42;;;;;;;26.90;9.77;;;3.50;99.90;;;;;;4957515;28;20208;-77
2022/03/27 06:29:14;;;;;;;31.37;11.60;;;3.50;99.90;;;;;;4939566;28;20172;-78
2022/03/27 06:31:39;;;;;;;20.57;12.90;;;3.50;99.90;;;;;;4941506;28;20203;-78
2022/03/27 06:34:06;;;;;;;23.53;14.10;;;3.50;99.90;;;;;;4941651;28;20187;-78
2022/03/27 06:36:33;;;;;;;20.87;12.60;;;3.70;99.90;;;;;;4942052;28;20211;-77
2022/03/27 06:38:58;;;;;;;26.57;14.03;;;3.80;99.90;;;;;;4959901;28;20195;-77
2022/03/27 06:41:25;;;;;;;23.20;13.43;;;3.70;99.90;;;;;;4943722;28;20183;-78
2022/03/27 06:43:50;;;;;;;39.17;13.47;;;3.90;99.90;;;;;;4943877;28;20184;-77
2022/03/27 06:46:17;;;;;;;19.87;12.10;;;3.90;99.90;;;;;;4943569;28;20215;-78
2022/03/27 06:48:47;;;;;;;18.27;11.40;;;4.00;99.90;;;;;;4943177;28;20270;-77
2022/03/27 06:51:13;;;;;;;23.60;10.90;;;4.00;99.90;;;;;;4944121;28;20575;-77
2022/03/27 06:53:40;;;;;;;34.70;11.87;;;4.00;99.90;;;;;;4944089;28;20248;-78
2022/03/27 06:56:06;;;;;;;52.37;11.93;;;4.00;99.90;;;;;;4943800;28;20204;-77
2022/03/27 06:58:32;;;;;;;20.53;11.47;;;3.80;99.90;;;;;;4944364;28;20283;-77
2022/03/27 07:03:42;;;;;;;21.83;10.50;;;3.90;99.90;;;;;;4960285;28;20639;-77
2022/03/27 07:06:08;;;;;;;17.30;10.90;;;4.00;99.90;;;;;;4943565;28;20223;-78
2022/03/27 07:08:33;;;;;;;32.73;9.90;;;4.10;99.90;;;;;;4943446;28;20187;-78
2022/03/27 07:10:59;;;;;;;42.07;8.53;;;4.10;99.90;;;;;;4945116;28;20279;-78
2022/03/27 07:13:25;;;;;;;17.67;8.00;;;4.00;99.90;;;;;;4943705;28;20267;-76
2022/03/27 07:15:52;;;;;;;26.27;9.13;;;3.80;99.90;;;;;;4942948;28;20605;-77
2022/03/27 07:18:18;;;;;;;60.37;9.27;;;3.90;99.90;;;;;;4942831;28;20218;-77
2022/03/27 07:20:45;;;;;;;32.80;10.07;;;3.80;99.90;;;;;;4945210;28;20187;-80
2022/03/27 07:23:14;;;;;;;17.53;9.03;;;3.90;99.90;;;;;;4948799;28;20183;-80
2022/03/27 07:25:42;;;;;;;38.13;11.00;;;3.90;99.90;;;;;;4948182;28;20204;-80
2022/03/27 07:28:09;;;;;;;33.07;9.23;;;4.00;99.90;;;;;;4947587;28;20263;-79
2022/03/27 07:30:36;;;;;;;25.47;10.23;;;3.90;99.90;;;;;;4951675;28;20207;-80
2022/03/27 07:33:02;;;;;;;28.70;11.10;;;3.80;99.90;;;;;;4953307;28;20184;-81
2022/03/27 07:35:32;;;;;;;26.20;11.13;;;3.90;99.90;;;;;;4955348;28;20216;-80
2022/03/27 07:37:58;;;;;;;24.77;11.20;;;4.00;99.90;;;;;;4952219;28;20243;-80
2022/03/27 07:40:24;;;;;;;27.60;11.33;;;4.10;99.90;;;;;;4952146;28;20184;-81
2022/03/27 07:42:51;;;;;;;41.23;11.80;;;4.20;99.90;;;;;;4953219;28;20180;-85
2022/03/27 07:45:18;;;;;;;29.23;11.23;;;4.30;99.90;;;;;;4964278;28;20210;-83
2022/03/27 07:47:45;;;;;;;27.50;10.80;;;4.40;99.90;;;;;;4965332;29;20197;-83
2022/03/27 07:50:11;;;;;;;37.47;12.83;;;4.40;99.90;;;;;;4981387;28;20192;-81
2022/03/27 07:52:38;;;;;;;27.93;10.93;;;4.50;99.90;;;;;;4966380;28;20196;-81
2022/03/27 07:55:06;;;;;;;31.10;10.80;;;4.60;99.90;;;;;;4966337;28;20195;-80
2022/03/27 07:57:31;;;;;;;27.90;11.23;;;4.80;99.90;;;;;;4966565;28;20168;-79
2022/03/27 07:59:57;;;;;;;25.33;10.90;;;4.90;99.90;;;;;;4966722;28;20199;-80
2022/03/27 08:02:23;;;;;;;23.73;9.70;;;5.00;99.90;;;;;;4966442;28;20192;-80
2022/03/27 08:04:49;;;;;;;47.50;11.57;;;5.00;99.90;;;;;;4966248;28;20215;-79
2022/03/27 08:07:15;;;;;;;25.73;10.57;;;5.00;99.90;;;;;;4966059;28;20219;-81
2022/03/27 08:09:41;;;;;;;24.67;11.93;;;5.00;99.90;;;;;;4982570;28;20206;-79
2022/03/27 08:12:08;;;;;;;57.77;12.27;;;5.00;99.90;;;;;;4966284;28;20176;-81
2022/03/27 08:14:35;;;;;;;33.97;13.97;;;4.90;99.90;;;;;;4982388;28;20168;-81
2022/03/27 08:17:02;;;;;;;32.20;13.10;;;5.00;99.90;;;;;;4981999;28;20270;-82
2022/03/27 08:19:28;;;;;;;31.23;13.53;;;5.00;99.90;;;;;;4966033;28;20178;-81
2022/03/27 08:21:54;;;;;;;27.23;13.13;;;5.00;99.90;;;;;;4956775;28;20200;-84
2022/03/27 08:24:20;;;;;;;30.60;13.70;;;5.00;99.90;;;;;;4957357;28;20164;-82
2022/03/27 08:26:59;;;;;;;35.80;13.90;;;5.00;99.90;;;;;;4959192;28;20211;-85
2022/03/27 08:29:31;;;;;;;25.47;12.77;;;5.10;99.90;;;;;;4956051;28;20215;-82
2022/03/27 08:32:00;;;;;;;30.00;15.27;;;5.20;99.90;;;;;;4955774;28;20180;-81
2022/03/27 08:34:30;;;;;;;31.17;14.37;;;5.30;99.90;;;;;;4970077;28;20176;-83
2022/03/27 08:36:58;;;;;;;35.00;13.17;;;5.50;99.90;;;;;;4948204;28;20200;-81
2022/03/27 08:39:24;;;;;;;29.47;13.50;;;5.60;99.90;;;;;;4946292;28;20266;-81
2022/03/27 08:41:54;;;;;;;23.27;11.80;;;5.70;99.90;;;;;;4944882;28;20263;-81
2022/03/27 08:44:21;;;;;;;25.93;11.77;;;5.80;99.90;;;;;;4944032;28;20187;-81
2022/03/27 08:46:50;;;;;;;26.53;11.53;;;5.80;99.90;;;;;;4945056;28;20216;-83
2022/03/27 08:49:28;;;;;;;20.03;11.17;;;5.80;99.90;;;;;;4957634;28;20180;-81
2022/03/27 08:52:03;;;;;;;26.97;11.53;;;6.00;99.90;;;;;;4946091;28;20210;-81
2022/03/27 08:54:43;;;;;;;24.87;11.30;;;6.20;99.90;;;;;;4944686;28;20263;-81
2022/03/27 08:57:24;;;;;;;23.97;11.23;;;6.10;99.90;;;;;;4944695;28;20199;-83
2022/03/27 08:59:55;;;;;;;21.13;10.70;;;6.10;99.90;;;;;;4960588;28;20180;-82
2022/03/27 09:02:24;;;;;;;26.00;11.57;;;6.20;99.90;;;;;;4945029;28;20264;-82
2022/03/27 09:04:54;;;;;;;23.43;10.83;;;6.30;99.90;;;;;;4944722;28;20176;-82
2022/03/27 09:07:29;;;;;;;22.17;11.43;;;6.30;99.90;;;;;;4944130;28;20238;-80
2022/03/27 09:09:55;;;;;;;27.63;11.27;;;6.30;99.90;;;;;;4948628;28;20175;-81
2022/03/27 09:12:21;;;;;;;28.37;11.20;;;6.30;99.90;;;;;;4944936;28;20210;-82
2022/03/27 09:14:48;;;;;;;25.73;11.53;;;6.40;99.90;;;;;;4944401;28;20181;-85
2022/03/27 09:17:15;;;;;;;27.90;11.57;;;6.60;99.90;;;;;;4936768;29;20284;-82
2022/03/27 09:19:50;;;;;;;27.60;11.57;;;6.70;99.90;;;;;;4933579;28;20657;-83
2022/03/27 09:22:29;;;;;;;26.60;10.93;;;6.90;99.90;;;;;;4942546;28;20269;-81
2022/03/27 09:25:04;;;;;;;28.60;12.43;;;7.10;99.90;;;;;;4954503;28;20191;-81
2022/03/27 09:27:35;;;;;;;34.57;17.73;;;7.20;99.90;;;;;;4961347;28;20299;-84
2022/03/27 09:30:07;;;;;;;25.27;13.30;;;7.40;99.90;;;;;;4958288;28;20176;-82
2022/03/27 09:32:39;;;;;;;26.57;12.80;;;7.60;99.90;;;;;;4936487;28;20265;-82
2022/03/27 09:35:09;;;;;;;30.47;11.60;;;7.70;99.90;;;;;;4941168;29;20177;-81
2022/03/27 09:37:41;;;;;;;28.77;10.67;;;7.70;99.90;;;;;;4960097;28;20186;-82
2022/03/27 09:40:09;;;;;;;22.23;10.67;;;7.70;99.90;;;;;;4943967;28;20213;-81
2022/03/27 09:42:37;;;;;;;28.50;10.63;;;7.70;99.90;;;;;;4943887;28;20271;-81
2022/03/27 09:45:11;;;;;;;23.60;10.73;;;7.80;99.90;;;;;;4947135;28;20185;-81
2022/03/27 09:47:38;;;;;;;27.47;10.77;;;7.90;99.90;;;;;;4943258;28;20238;-81
2022/03/27 09:50:04;;;;;;;26.67;11.30;;;7.90;99.90;;;;;;4943065;28;20179;-81
2022/03/27 09:52:30;;;;;;;29.10;11.87;;;7.90;99.90;;;;;;4947021;28;20172;-80
2022/03/27 09:54:58;;;;;;;27.97;13.50;;;8.00;99.90;;;;;;4943554;28;20267;-81
2022/03/27 09:57:32;;;;;;;33.83;15.10;;;8.10;99.90;;;;;;4943674;28;20183;-82
2022/03/27 10:00:19;;;;;;;31.70;11.97;;;8.20;99.90;;;;;;4943707;28;20639;-80
2022/03/27 10:02:49;;;;;;;31.57;11.57;;;8.50;99.90;;;;;;4959821;28;20194;-84
2022/03/27 10:05:20;;;;;;;33.53;13.37;;;8.60;99.90;;;;;;4943967;28;20191;-83
2022/03/27 10:07:54;;;;;;;25.07;12.60;;;8.80;99.90;;;;;;4959413;28;20204;-82
2022/03/27 10:10:24;;;;;;;34.93;13.57;;;8.90;99.90;;;;;;4944801;28;20176;-79
2022/03/27 10:12:55;;;;;;;32.43;14.13;;;8.90;99.90;;;;;;4941409;28;20191;-79
2022/03/27 10:15:29;;;;;;;39.30;15.43;;;8.90;99.90;;;;;;4941996;28;20200;-80
2022/03/27 10:18:13;;;;;;;28.27;13.30;;;8.90;99.90;;;;;;4943437;28;20938;-81
2022/03/27 10:20:39;;;;;;;35.23;14.00;;;8.90;99.90;;;;;;4941948;29;20176;-82
2022/03/27 10:23:09;;;;;;;28.73;11.80;;;9.40;99.90;;;;;;4957873;29;20184;-80
2022/03/27 10:25:48;;;;;;;25.43;13.20;;;9.70;99.90;;;;;;4955763;29;20204;-80
2022/03/27 10:28:16;;;;;;;24.13;12.57;;;10.00;99.90;;;;;;4954877;29;20189;-80
2022/03/27 10:30:43;;;;;;;30.80;12.93;;;10.20;99.90;;;;;;4956703;29;20585;-78
2022/03/27 10:33:09;;;;;;;28.70;11.77;;;10.40;99.90;;;;;;4938506;29;20216;-79
2022/03/27 10:35:55;;;;;;;25.67;12.10;;;10.80;99.90;;;;;;4953302;29;20216;-80
2022/03/27 10:38:45;;;;;;;22.57;10.47;;;11.40;99.90;;;;;;4958523;29;20185;-83
2022/03/27 10:41:20;;;;;;;19.80;11.13;;;11.60;99.90;;;;;;4926666;29;20188;-85
2022/03/27 10:44:37;;;;;;;24.30;10.80;;;11.90;99.90;;;;;;4959771;29;20180;-83
2022/03/27 10:47:20;;;;;;;19.90;10.33;;;12.50;99.90;;;;;;4922323;29;20635;-84
2022/03/27 10:50:02;;;;;;;22.60;10.60;;;13.10;99.90;;;;;;4952417;28;20192;-85
2022/03/27 10:52:33;;;;;;;21.83;10.87;;;13.30;99.90;;;;;;4963393;28;20192;-85
2022/03/27 10:55:06;;;;;;;24.77;10.97;;;13.40;99.90;;;;;;4961334;28;20211;-81
2022/03/27 10:57:34;;;;;;;28.23;12.47;;;13.40;99.90;;;;;;4947588;28;20243;-81
2022/03/27 11:00:01;;;;;;;20.67;10.73;;;13.90;99.90;;;;;;4941881;29;20173;-81
2022/03/27 11:02:50;;;;;;;24.57;10.70;;;14.60;99.90;;;;;;4958519;29;20184;-81
2022/03/27 11:05:37;;;;;;;21.90;10.10;;;14.60;99.90;;;;;;4941950;29;20195;-81
2022/03/27 11:08:16;;;;;;;17.60;9.97;;;15.40;99.70;;;;;;4949979;28;20192;-83
2022/03/27 11:10:51;;;;;;;21.40;10.23;;;16.00;99.40;;;;;;4953374;29;20184;-85
2022/03/27 11:13:26;;;;;;;18.10;10.00;;;16.10;98.00;;;;;;4930223;29;20251;-84
2022/03/27 11:16:13;;;;;;;22.67;9.60;;;17.90;95.70;;;;;;4944980;29;20192;-84
2022/03/27 11:18:46;;;;;;;20.33;9.80;;;19.00;91.70;;;;;;4930093;29;20187;-84
2022/03/27 11:21:14;;;;;;;22.17;10.07;;;17.50;91.20;;;;;;4934205;29;20180;-84
2022/03/27 11:23:43;;;;;;;20.67;10.07;;;16.20;93.30;;;;;;4935120;29;20196;-83
2022/03/27 11:26:21;;;;;;;22.03;10.40;;;16.00;94.30;;;;;;4937234;29;20212;-82
2022/03/27 11:28:55;;;;;;;17.57;9.83;;;15.90;94.50;;;;;;4953459;29;20211;-83
2022/03/27 11:31:26;;;;;;;20.53;9.80;;;15.90;94.70;;;;;;4946371;28;20184;-83
2022/03/27 11:34:04;;;;;;;25.17;10.00;;;16.60;94.00;;;;;;4959943;28;20176;-83
2022/03/27 11:36:32;;;;;;;18.70;10.13;;;17.20;92.70;;;;;;4956845;28;20199;-83
2022/03/27 11:39:02;;;;;;;19.20;10.57;;;16.70;93.90;;;;;;4954196;28;20184;-83
2022/03/27 11:41:48;;;;;;;23.10;9.17;;;17.80;93.10;;;;;;4953967;28;20180;-83
2022/03/27 11:44:17;;;;;;;22.93;9.73;;;18.60;91.50;;;;;;4952750;28;20646;-83
2022/03/27 11:46:54;;;;;;;19.43;10.47;;;16.60;91.80;;;;;;4953667;28;20560;-84
2022/03/27 11:49:35;;;;;;;19.33;9.57;;;15.60;94.00;;;;;;4953581;28;20199;-83
2022/03/27 11:52:08;;;;;;;16.33;9.73;;;16.60;93.80;;;;;;4951804;28;20207;-83
2022/03/27 11:54:35;;;;;;;18.00;9.97;;;17.10;92.70;;;;;;4951569;28;20200;-84
2022/03/27 11:57:02;;;;;;;20.47;10.37;;;17.10;93.10;;;;;;4950149;28;20607;-83
2022/03/27 11:59:28;;;;;;;25.83;11.67;;;17.50;92.50;;;;;;4949211;28;20231;-84
2022/03/27 12:01:57;;;;;;;21.10;10.03;;;16.50;92.60;;;;;;4939198;29;20184;-84
2022/03/27 12:04:25;;;;;;;20.73;10.40;;;16.30;93.60;;;;;;4960553;29;20667;-82
2022/03/27 12:07:03;;;;;;;19.27;10.23;;;16.10;93.10;;;;;;4958594;29;20290;-85
2022/03/27 12:09:33;;;;;;;18.47;10.57;;;16.80;92.10;;;;;;4960275;29;20184;-88
2022/03/27 12:12:14;;;;;;;19.87;10.97;;;18.70;90.90;;;;;;4961918;29;20188;-89
2022/03/27 12:15:09;;;;;;;20.93;11.13;;;20.50;86.10;;;;;;4959083;29;20283;-87
2022/03/27 12:17:46;;;;;;;21.97;11.20;;;22.40;74.80;;;;;;4930282;28;20192;-87
2022/03/27 12:20:12;;;;;;;22.60;11.40;;;21.70;71.80;;;;;;4944263;28;20179;-86
2022/03/27 12:22:44;;;;;;;19.23;10.20;;;21.90;71.00;;;;;;4945995;28;20592;-88
2022/03/27 12:25:20;;;;;;;19.83;10.93;;;22.20;70.40;;;;;;4947850;29;20193;-88
2022/03/27 12:30:49;;;;;;;23.77;11.23;;;18.30;76.70;;;;;;4943221;29;20176;-87
2022/03/27 12:33:19;;;;;;;20.70;11.13;;;15.80;86.50;;;;;;4960346;29;20633;-87
2022/03/27 12:35:47;;;;;;;21.03;11.00;;;14.60;94.30;;;;;;4957969;28;20676;-89
2022/03/27 12:38:13;;;;;;;23.17;11.10;;;14.10;97.60;;;;;;4957823;29;20491;-86
2022/03/27 12:40:44;;;;;;;19.33;10.67;;;13.70;99.50;;;;;;4959616;29;20184;-87
2022/03/27 12:43:15;;;;;;;20.47;10.60;;;14.00;99.70;;;;;;4958925;29;20187;-87
2022/03/27 12:45:42;;;;;;;21.53;11.07;;;14.20;99.00;;;;;;4958587;29;20204;-87
2022/03/27 12:48:16;;;;;;;22.37;10.73;;;14.60;98.70;;;;;;4976312;28;20175;-83
2022/03/27 12:50:44;;;;;;;18.87;10.27;;;15.40;97.40;;;;;;4948355;28;20230;-84